sensor_id;sensor_type;location;lat;lon;timestamp;pressure;altitude;pressure_sealevel;temperature
66113;BMP280;52893;52.870;5.822;2023-04-16T00:00:28;102152.28;;;9.92
66113;BMP280;52893;52.870;5.822;2023-04-16T00:02:56;102171.00;;;10.08
66113;BMP280;52893;52.870;5.822;2023-04-16T00:05:23;102178.03;;;10.09
66113;BMP280;52893;52.870;5.822;2023-04-16T00:07:52;102174.22;;;10.10
66113;BMP280;52893;52.870;5.822;2023-04-16T00:10:20;102170.41;;;10.11
66113;BMP280;52893;52.870;5.822;2023-04-16T00:12:49;102175.84;;;10.11
66113;BMP280;52893;52.870;5.822;2023-04-16T00:15:16;102156.66;;;9.98
66113;BMP280;52893;52.870;5.822;2023-04-16T00:17:44;102168.25;;;10.08
66113;BMP280;52893;52.870;5.822;2023-04-16T00:20:12;102176.75;;;10.07
66113;BMP280;52893;52.870;5.822;2023-04-16T00:22:41;102178.34;;;10.08
66113;BMP280;52893;52.870;5.822;2023-04-16T00:25:08;102183.50;;;10.09
66113;BMP280;52893;52.870;5.822;2023-04-16T00:27:36;102175.31;;;10.09
66113;BMP280;52893;52.870;5.822;2023-04-16T00:30:07;102176.94;;;10.10
66113;BMP280;52893;52.870;5.822;2023-04-16T00:32:34;102174.75;;;10.12
66113;BMP280;52893;52.870;5.822;2023-04-16T00:35:02;102178.84;;;10.15
66113;BMP280;52893;52.870;5.822;2023-04-16T00:37:30;102176.94;;;10.15
66113;BMP280;52893;52.870;5.822;2023-04-16T00:39:58;102140.28;;;9.93
66113;BMP280;52893;52.870;5.822;2023-04-16T00:42:25;102097.47;;;9.64
66113;BMP280;52893;52.870;5.822;2023-04-16T00:44:53;102175.81;;;10.16
66113;BMP280;52893;52.870;5.822;2023-04-16T00:47:21;102179.66;;;10.15
66113;BMP280;52893;52.870;5.822;2023-04-16T00:49:49;102181.25;;;10.16
66113;BMP280;52893;52.870;5.822;2023-04-16T00:52:18;102182.66;;;10.14
66113;BMP280;52893;52.870;5.822;2023-04-16T00:54:45;102181.84;;;10.13
66113;BMP280;52893;52.870;5.822;2023-04-16T00:57:13;102156.38;;;9.94
66113;BMP280;52893;52.870;5.822;2023-04-16T00:59:41;102190.31;;;10.12
66113;BMP280;52893;52.870;5.822;2023-04-16T01:02:09;102191.13;;;10.12
66113;BMP280;52893;52.870;5.822;2023-04-16T01:04:38;102187.84;;;10.15
66113;BMP280;52893;52.870;5.822;2023-04-16T01:07:06;102192.19;;;10.16
66113;BMP280;52893;52.870;5.822;2023-04-16T01:09:35;102187.84;;;10.15
66113;BMP280;52893;52.870;5.822;2023-04-16T01:12:03;102187.25;;;10.18
66113;BMP280;52893;52.870;5.822;2023-04-16T01:14:30;102176.69;;;10.12
66113;BMP280;52893;52.870;5.822;2023-04-16T01:17:02;102181.25;;;10.16
66113;BMP280;52893;52.870;5.822;2023-04-16T01:19:29;102183.94;;;10.21
66113;BMP280;52893;52.870;5.822;2023-04-16T01:21:58;102187.22;;;10.23
66113;BMP280;52893;52.870;5.822;2023-04-16T01:24:26;102188.03;;;10.24
66113;BMP280;52893;52.870;5.822;2023-04-16T01:26:53;102174.91;;;10.26
66113;BMP280;52893;52.870;5.822;2023-04-16T01:29:21;102186.63;;;10.27
66113;BMP280;52893;52.870;5.822;2023-04-16T01:31:49;102183.91;;;10.27
66113;BMP280;52893;52.870;5.822;2023-04-16T01:34:30;102182.28;;;10.25
66113;BMP280;52893;52.870;5.822;2023-04-16T01:36:59;102178.72;;;10.25
66113;BMP280;52893;52.870;5.822;2023-04-16T01:39:27;102190.47;;;10.25
66113;BMP280;52893;52.870;5.822;2023-04-16T01:41:56;102184.41;;;10.29
66113;BMP280;52893;52.870;5.822;2023-04-16T01:44:24;102188.78;;;10.30
66113;BMP280;52893;52.870;5.822;2023-04-16T01:46:51;102184.94;;;10.31
66113;BMP280;52893;52.870;5.822;2023-04-16T01:49:21;102177.84;;;10.30
66113;BMP280;52893;52.870;5.822;2023-04-16T01:51:49;102187.41;;;10.32
66113;BMP280;52893;52.870;5.822;2023-04-16T01:54:19;102182.44;;;10.34
66113;BMP280;52893;52.870;5.822;2023-04-16T01:56:46;102110.09;;;9.89
66113;BMP280;52893;52.870;5.822;2023-04-16T01:59:14;102180.53;;;10.35
66113;BMP280;52893;52.870;5.822;2023-04-16T02:01:41;102177.81;;;10.35
66113;BMP280;52893;52.870;5.822;2023-04-16T02:04:10;102186.53;;;10.37
66113;BMP280;52893;52.870;5.822;2023-04-16T02:06:38;102174.78;;;10.36
66113;BMP280;52893;52.870;5.822;2023-04-16T02:09:06;102178.34;;;10.37
66113;BMP280;52893;52.870;5.822;2023-04-16T02:11:35;102177.28;;;10.33
66113;BMP280;52893;52.870;5.822;2023-04-16T02:14:02;102173.16;;;10.35
66113;BMP280;52893;52.870;5.822;2023-04-16T02:16:30;102178.03;;;10.38
66113;BMP280;52893;52.870;5.822;2023-04-16T02:19:12;102170.16;;;10.37
66113;BMP280;52893;52.870;5.822;2023-04-16T02:21:41;102166.59;;;10.36
66113;BMP280;52893;52.870;5.822;2023-04-16T02:24:09;102172.56;;;10.38
66113;BMP280;52893;52.870;5.822;2023-04-16T02:26:38;102168.22;;;10.37
66113;BMP280;52893;52.870;5.822;2023-04-16T02:29:12;102167.94;;;10.39
66113;BMP280;52893;52.870;5.822;2023-04-16T02:31:46;102173.41;;;10.39
66113;BMP280;52893;52.870;5.822;2023-04-16T02:34:14;102170.16;;;10.37
66113;BMP280;52893;52.870;5.822;2023-04-16T02:36:42;102172.34;;;10.35
66113;BMP280;52893;52.870;5.822;2023-04-16T02:39:09;102145.03;;;10.11
66113;BMP280;52893;52.870;5.822;2023-04-16T02:41:36;102171.31;;;10.31
66113;BMP280;52893;52.870;5.822;2023-04-16T02:44:05;102167.56;;;10.21
66113;BMP280;52893;52.870;5.822;2023-04-16T02:46:33;102171.16;;;10.17
66113;BMP280;52893;52.870;5.822;2023-04-16T02:49:00;102183.91;;;10.27
66113;BMP280;52893;52.870;5.822;2023-04-16T02:51:28;102190.19;;;10.27
66113;BMP280;52893;52.870;5.822;2023-04-16T02:53:57;102187.13;;;10.29
66113;BMP280;52893;52.870;5.822;2023-04-16T02:56:24;102176.31;;;10.23
66113;BMP280;52893;52.870;5.822;2023-04-16T02:58:52;102186.88;;;10.30
66113;BMP280;52893;52.870;5.822;2023-04-16T03:01:21;102193.13;;;10.31
66113;BMP280;52893;52.870;5.822;2023-04-16T03:03:48;102190.41;;;10.31
66113;BMP280;52893;52.870;5.822;2023-04-16T03:06:15;102174.66;;;10.22
66113;BMP280;52893;52.870;5.822;2023-04-16T03:08:43;102193.13;;;10.31
66113;BMP280;52893;52.870;5.822;2023-04-16T03:11:10;102187.13;;;10.29
66113;BMP280;52893;52.870;5.822;2023-04-16T03:13:39;102165.47;;;10.13
66113;BMP280;52893;52.870;5.822;2023-04-16T03:16:07;102193.69;;;10.27
66113;BMP280;52893;52.870;5.822;2023-04-16T03:18:36;102198.66;;;10.25
66113;BMP280;52893;52.870;5.822;2023-04-16T03:21:04;102176.63;;;10.17
66113;BMP280;52893;52.870;5.822;2023-04-16T03:23:31;102205.16;;;10.30
66113;BMP280;52893;52.870;5.822;2023-04-16T03:25:59;102194.88;;;10.21
66113;BMP280;52893;52.870;5.822;2023-04-16T03:28:27;102177.78;;;10.11
66113;BMP280;52893;52.870;5.822;2023-04-16T03:30:54;102206.25;;;10.29
66113;BMP280;52893;52.870;5.822;2023-04-16T03:33:22;102207.34;;;10.27
66113;BMP280;52893;52.870;5.822;2023-04-16T03:36:05;102210.16;;;10.22
66113;BMP280;52893;52.870;5.822;2023-04-16T03:38:33;102218.56;;;10.26
66113;BMP280;52893;52.870;5.822;2023-04-16T03:41:00;102213.94;;;10.27
66113;BMP280;52893;52.870;5.822;2023-04-16T03:43:31;102220.47;;;10.25
66113;BMP280;52893;52.870;5.822;2023-04-16T03:45:59;102215.88;;;10.21
66113;BMP280;52893;52.870;5.822;2023-04-16T03:48:26;102208.31;;;10.13
66113;BMP280;52893;52.870;5.822;2023-04-16T03:50:55;102221.63;;;10.19
66113;BMP280;52893;52.870;5.822;2023-04-16T03:53:23;102221.91;;;10.18
66113;BMP280;52893;52.870;5.822;2023-04-16T03:55:51;102222.72;;;10.18
66113;BMP280;52893;52.870;5.822;2023-04-16T03:58:20;102226.34;;;10.14
66113;BMP280;52893;52.870;5.822;2023-04-16T04:00:47;102227.34;;;10.18
66113;BMP280;52893;52.870;5.822;2023-04-16T04:03:17;102214.94;;;10.07
66113;BMP280;52893;52.870;5.822;2023-04-16T04:05:46;102223.31;;;10.15
66113;BMP280;52893;52.870;5.822;2023-04-16T04:08:22;102227.97;;;10.15
66113;BMP280;52893;52.870;5.822;2023-04-16T04:10:50;102215.75;;;10.07
66113;BMP280;52893;52.870;5.822;2023-04-16T04:13:20;102224.94;;;10.16
66113;BMP280;52893;52.870;5.822;2023-04-16T04:15:48;102228.78;;;10.15
66113;BMP280;52893;52.870;5.822;2023-04-16T04:18:16;102215.97;;;10.16
66113;BMP280;52893;52.870;5.822;2023-04-16T04:20:46;102225.53;;;10.13
66113;BMP280;52893;52.870;5.822;2023-04-16T04:23:16;102235.06;;;10.16
66113;BMP280;52893;52.870;5.822;2023-04-16T04:25:46;102234.25;;;10.15
66113;BMP280;52893;52.870;5.822;2023-04-16T04:28:14;102220.41;;;10.07
66113;BMP280;52893;52.870;5.822;2023-04-16T04:30:43;102239.69;;;10.15
66113;BMP280;52893;52.870;5.822;2023-04-16T04:33:11;102233.44;;;10.15
66113;BMP280;52893;52.870;5.822;2023-04-16T04:35:39;102234.53;;;10.14
66113;BMP280;52893;52.870;5.822;2023-04-16T04:38:08;102240.78;;;10.14
66113;BMP280;52893;52.870;5.822;2023-04-16T04:40:35;102241.88;;;10.13
66113;BMP280;52893;52.870;5.822;2023-04-16T04:43:06;102240.81;;;10.09
66113;BMP280;52893;52.870;5.822;2023-04-16T04:45:34;102240.81;;;10.09
66113;BMP280;52893;52.870;5.822;2023-04-16T04:48:01;102235.34;;;10.09
66113;BMP280;52893;52.870;5.822;2023-04-16T04:50:29;102232.94;;;10.08
66113;BMP280;52893;52.870;5.822;2023-04-16T04:52:57;102230.50;;;10.06
66113;BMP280;52893;52.870;5.822;2023-04-16T04:55:25;102225.69;;;9.93
66113;BMP280;52893;52.870;5.822;2023-04-16T04:57:52;102240.06;;;10.04
66113;BMP280;52893;52.870;5.822;2023-04-16T05:00:21;102240.88;;;10.04
66113;BMP280;52893;52.870;5.822;2023-04-16T05:02:53;102238.16;;;10.04
66113;BMP280;52893;52.870;5.822;2023-04-16T05:05:21;102243.59;;;10.04
66113;BMP280;52893;52.870;5.822;2023-04-16T05:07:48;102244.41;;;10.05
66113;BMP280;52893;52.870;5.822;2023-04-16T05:10:16;102255.56;;;10.08
66113;BMP280;52893;52.870;5.822;2023-04-16T05:12:44;102253.34;;;10.10
66113;BMP280;52893;52.870;5.822;2023-04-16T05:15:12;102243.31;;;10.06
66113;BMP280;52893;52.870;5.822;2023-04-16T05:17:41;102249.06;;;10.04
66113;BMP280;52893;52.870;5.822;2023-04-16T05:20:09;102259.34;;;10.12
66113;BMP280;52893;52.870;5.822;2023-04-16T05:22:37;102252.81;;;10.13
66113;BMP280;52893;52.870;5.822;2023-04-16T05:25:05;102244.97;;;10.07
66113;BMP280;52893;52.870;5.822;2023-04-16T05:27:32;102253.28;;;10.20
66113;BMP280;52893;52.870;5.822;2023-04-16T05:30:00;102257.38;;;10.23
66113;BMP280;52893;52.870;5.822;2023-04-16T05:32:27;102255.72;;;10.22
66113;BMP280;52893;52.870;5.822;2023-04-16T05:34:56;102257.06;;;10.24
66113;BMP280;52893;52.870;5.822;2023-04-16T05:37:24;102228.28;;;10.08
66113;BMP280;52893;52.870;5.822;2023-04-16T05:39:52;102268.22;;;10.28
66113;BMP280;52893;52.870;5.822;2023-04-16T05:42:19;102267.38;;;10.27
66113;BMP280;52893;52.870;5.822;2023-04-16T05:44:46;102269.03;;;10.29
66113;BMP280;52893;52.870;5.822;2023-04-16T05:47:14;102280.50;;;10.31
66113;BMP280;52893;52.870;5.822;2023-04-16T05:49:42;102269.56;;;10.31
66113;BMP280;52893;52.870;5.822;2023-04-16T05:52:11;102268.47;;;10.32
66113;BMP280;52893;52.870;5.822;2023-04-16T05:54:40;102267.63;;;10.36
66113;BMP280;52893;52.870;5.822;2023-04-16T05:57:08;102254.88;;;10.27
66113;BMP280;52893;52.870;5.822;2023-04-16T05:59:35;102263.88;;;10.27
66113;BMP280;52893;52.870;5.822;2023-04-16T06:02:03;102288.63;;;10.36
66113;BMP280;52893;52.870;5.822;2023-04-16T06:04:32;102288.63;;;10.36
66113;BMP280;52893;52.870;5.822;2023-04-16T06:07:00;102284.81;;;10.37
66113;BMP280;52893;52.870;5.822;2023-04-16T06:09:29;102257.63;;;10.21
66113;BMP280;52893;52.870;5.822;2023-04-16T06:11:58;102297.34;;;10.38
66113;BMP280;52893;52.870;5.822;2023-04-16T06:14:25;102271.28;;;10.21
66113;BMP280;52893;52.870;5.822;2023-04-16T06:16:53;102295.72;;;10.37
66113;BMP280;52893;52.870;5.822;2023-04-16T06:19:21;102288.69;;;10.31
66113;BMP280;52893;52.870;5.822;2023-04-16T06:21:49;102307.16;;;10.39
66113;BMP280;52893;52.870;5.822;2023-04-16T06:24:16;102297.09;;;10.34
66113;BMP280;52893;52.870;5.822;2023-04-16T06:26:45;102294.09;;;10.36
66113;BMP280;52893;52.870;5.822;2023-04-16T06:29:13;102314.78;;;10.42
66113;BMP280;52893;52.870;5.822;2023-04-16T06:31:40;102316.41;;;10.43
66113;BMP280;52893;52.870;5.822;2023-04-16T06:34:08;102311.75;;;10.43
66113;BMP280;52893;52.870;5.822;2023-04-16T06:36:35;102318.59;;;10.46
66113;BMP280;52893;52.870;5.822;2023-04-16T06:39:03;102238.50;;;9.98
66113;BMP280;52893;52.870;5.822;2023-04-16T06:41:31;102328.06;;;10.53
66113;BMP280;52893;52.870;5.822;2023-04-16T06:44:00;102327.78;;;10.55
66113;BMP280;52893;52.870;5.822;2023-04-16T06:46:27;102328.28;;;10.57
66113;BMP280;52893;52.870;5.822;2023-04-16T06:48:54;102322.59;;;10.53
66113;BMP280;52893;52.870;5.822;2023-04-16T06:51:22;102340.28;;;10.61
66113;BMP280;52893;52.870;5.822;2023-04-16T06:53:49;102333.44;;;10.63
66113;BMP280;52893;52.870;5.822;2023-04-16T06:56:17;102339.09;;;10.67
66113;BMP280;52893;52.870;5.822;2023-04-16T06:58:44;102335.81;;;10.70
66113;BMP280;52893;52.870;5.822;2023-04-16T07:01:15;102338.78;;;10.74
66113;BMP280;52893;52.870;5.822;2023-04-16T07:03:43;102344.47;;;10.77
66113;BMP280;52893;52.870;5.822;2023-04-16T07:06:11;102342.28;;;10.79
66113;BMP280;52893;52.870;5.822;2023-04-16T07:08:38;102342.81;;;10.81
66113;BMP280;52893;52.870;5.822;2023-04-16T07:11:06;102347.16;;;10.82
66113;BMP280;52893;52.870;5.822;2023-04-16T07:13:33;102310.78;;;10.63
66113;BMP280;52893;52.870;5.822;2023-04-16T07:16:01;102303.13;;;10.60
66113;BMP280;52893;52.870;5.822;2023-04-16T07:18:30;102349.25;;;10.90
66113;BMP280;52893;52.870;5.822;2023-04-16T07:20:58;102352.22;;;10.94
66113;BMP280;52893;52.870;5.822;2023-04-16T07:23:26;102360.66;;;10.97
66113;BMP280;52893;52.870;5.822;2023-04-16T07:25:54;102365.03;;;10.98
66113;BMP280;52893;52.870;5.822;2023-04-16T07:28:21;102362.53;;;11.02
66113;BMP280;52893;52.870;5.822;2023-04-16T07:30:50;102360.31;;;11.04
66113;BMP280;52893;52.870;5.822;2023-04-16T07:33:17;102362.47;;;11.07
66113;BMP280;52893;52.870;5.822;2023-04-16T07:35:46;102363.81;;;11.09
66113;BMP280;52893;52.870;5.822;2023-04-16T07:38:14;102371.94;;;11.14
66113;BMP280;52893;52.870;5.822;2023-04-16T07:40:41;102365.34;;;11.21
66113;BMP280;52893;52.870;5.822;2023-04-16T07:43:12;102366.38;;;11.25
66113;BMP280;52893;52.870;5.822;2023-04-16T07:45:40;102371.28;;;11.28
66113;BMP280;52893;52.870;5.822;2023-04-16T07:48:07;102372.59;;;11.30
66113;BMP280;52893;52.870;5.822;2023-04-16T07:50:35;102357.16;;;11.21
66113;BMP280;52893;52.870;5.822;2023-04-16T07:53:04;102380.44;;;11.37
66113;BMP280;52893;52.870;5.822;2023-04-16T07:55:34;102384.81;;;11.38
66113;BMP280;52893;52.870;5.822;2023-04-16T07:58:01;102378.25;;;11.39
66113;BMP280;52893;52.870;5.822;2023-04-16T08:00:29;102361.94;;;11.29
66113;BMP280;52893;52.870;5.822;2023-04-16T08:02:56;102385.78;;;11.47
66113;BMP280;52893;52.870;5.822;2023-04-16T08:05:24;102393.41;;;11.50
66113;BMP280;52893;52.870;5.822;2023-04-16T08:07:51;102390.34;;;11.51
66113;BMP280;52893;52.870;5.822;2023-04-16T08:10:20;102402.94;;;11.52
66113;BMP280;52893;52.870;5.822;2023-04-16T08:12:48;102378.47;;;11.42
66113;BMP280;52893;52.870;5.822;2023-04-16T08:15:15;102406.75;;;11.56
66113;BMP280;52893;52.870;5.822;2023-04-16T08:17:43;102399.03;;;11.58
66113;BMP280;52893;52.870;5.822;2023-04-16T08:20:10;102387.94;;;11.50
66113;BMP280;52893;52.870;5.822;2023-04-16T08:22:37;102407.09;;;11.69
66113;BMP280;52893;52.870;5.822;2023-04-16T08:25:06;102417.16;;;11.73
66113;BMP280;52893;52.870;5.822;2023-04-16T08:27:35;102411.13;;;11.76
66113;BMP280;52893;52.870;5.822;2023-04-16T08:30:05;102415.69;;;11.81
66113;BMP280;52893;52.870;5.822;2023-04-16T08:32:32;102421.41;;;11.84
66113;BMP280;52893;52.870;5.822;2023-04-16T08:35:00;102424.34;;;11.88
66113;BMP280;52893;52.870;5.822;2023-04-16T08:37:27;102416.50;;;11.81
66113;BMP280;52893;52.870;5.822;2023-04-16T08:39:55;102415.19;;;11.79
66113;BMP280;52893;52.870;5.822;2023-04-16T08:42:27;102434.06;;;11.80
66113;BMP280;52893;52.870;5.822;2023-04-16T08:45:05;102439.31;;;11.77
66113;BMP280;52893;52.870;5.822;2023-04-16T08:47:34;102432.47;;;11.74
66113;BMP280;52893;52.870;5.822;2023-04-16T08:50:03;102441.13;;;11.81
66113;BMP280;52893;52.870;5.822;2023-04-16T08:52:31;102442.78;;;11.82
66113;BMP280;52893;52.870;5.822;2023-04-16T08:55:03;102424.63;;;11.68
66113;BMP280;52893;52.870;5.822;2023-04-16T08:57:38;102427.53;;;11.76
66113;BMP280;52893;52.870;5.822;2023-04-16T09:00:10;102441.38;;;11.85
66113;BMP280;52893;52.870;5.822;2023-04-16T09:02:37;102419.38;;;11.71
66113;BMP280;52893;52.870;5.822;2023-04-16T09:05:06;102437.06;;;11.79
66113;BMP280;52893;52.870;5.822;2023-04-16T09:07:34;102449.94;;;11.78
66113;BMP280;52893;52.870;5.822;2023-04-16T09:10:02;102440.63;;;11.79
66113;BMP280;52893;52.870;5.822;2023-04-16T09:12:31;102450.91;;;11.87
66113;BMP280;52893;52.870;5.822;2023-04-16T09:14:59;102449.75;;;11.93
66113;BMP280;52893;52.870;5.822;2023-04-16T09:17:29;102433.09;;;11.90
66113;BMP280;52893;52.870;5.822;2023-04-16T09:19:57;102452.06;;;12.05
66113;BMP280;52893;52.870;5.822;2023-04-16T09:22:26;102446.88;;;12.03
66113;BMP280;52893;52.870;5.822;2023-04-16T09:24:55;102455.78;;;12.09
66113;BMP280;52893;52.870;5.822;2023-04-16T09:27:24;102445.91;;;12.13
66113;BMP280;52893;52.870;5.822;2023-04-16T09:29:51;102451.56;;;12.17
66113;BMP280;52893;52.870;5.822;2023-04-16T09:32:24;102443.47;;;12.12
66113;BMP280;52893;52.870;5.822;2023-04-16T09:34:58;102444.56;;;12.10
66113;BMP280;52893;52.870;5.822;2023-04-16T09:37:26;102454.13;;;12.13
66113;BMP280;52893;52.870;5.822;2023-04-16T09:39:55;102453.59;;;12.11
66113;BMP280;52893;52.870;5.822;2023-04-16T09:42:26;102455.78;;;12.09
66113;BMP280;52893;52.870;5.822;2023-04-16T09:44:54;102428.38;;;11.95
66113;BMP280;52893;52.870;5.822;2023-04-16T09:47:24;102461.59;;;12.07
66113;BMP280;52893;52.870;5.822;2023-04-16T09:49:51;102457.16;;;12.12
66113;BMP280;52893;52.870;5.822;2023-04-16T09:52:21;102462.06;;;12.15
66113;BMP280;52893;52.870;5.822;2023-04-16T09:54:49;102459.75;;;12.22
66113;BMP280;52893;52.870;5.822;2023-04-16T09:57:18;102462.41;;;12.27
66113;BMP280;52893;52.870;5.822;2023-04-16T09:59:47;102453.00;;;12.33
66113;BMP280;52893;52.870;5.822;2023-04-16T10:02:15;102452.63;;;12.39
66113;BMP280;52893;52.870;5.822;2023-04-16T10:04:47;102450.41;;;12.41
66113;BMP280;52893;52.870;5.822;2023-04-16T10:07:15;102453.88;;;12.47
66113;BMP280;52893;52.870;5.822;2023-04-16T10:09:44;102434.16;;;12.45
66113;BMP280;52893;52.870;5.822;2023-04-16T10:12:13;102458.50;;;12.65
66113;BMP280;52893;52.870;5.822;2023-04-16T10:14:41;102453.00;;;12.65
66113;BMP280;52893;52.870;5.822;2023-04-16T10:17:09;102455.16;;;12.68
66113;BMP280;52893;52.870;5.822;2023-04-16T10:19:36;102453.53;;;12.67
66113;BMP280;52893;52.870;5.822;2023-04-16T10:22:04;102458.63;;;12.74
66113;BMP280;52893;52.870;5.822;2023-04-16T10:24:32;102456.34;;;12.81
66113;BMP280;52893;52.870;5.822;2023-04-16T10:27:01;102458.38;;;12.89
66113;BMP280;52893;52.870;5.822;2023-04-16T10:29:30;102474.97;;;12.97
66113;BMP280;52893;52.870;5.822;2023-04-16T10:31:58;102475.94;;;13.01
66113;BMP280;52893;52.870;5.822;2023-04-16T10:34:26;102474.22;;;13.05
66113;BMP280;52893;52.870;5.822;2023-04-16T10:36:54;102467.03;;;13.10
66113;BMP280;52893;52.870;5.822;2023-04-16T10:39:22;102467.84;;;13.10
66113;BMP280;52893;52.870;5.822;2023-04-16T10:42:06;102477.78;;;13.06
66113;BMP280;52893;52.870;5.822;2023-04-16T10:44:34;102481.25;;;13.12
66113;BMP280;52893;52.870;5.822;2023-04-16T10:47:02;102487.25;;;13.14
66113;BMP280;52893;52.870;5.822;2023-04-16T10:49:35;102474.34;;;13.14
66113;BMP280;52893;52.870;5.822;2023-04-16T10:52:09;102485.84;;;13.16
66113;BMP280;52893;52.870;5.822;2023-04-16T10:54:38;102482.78;;;13.18
66113;BMP280;52893;52.870;5.822;2023-04-16T10:57:08;102476.28;;;13.14
66113;BMP280;52893;52.870;5.822;2023-04-16T10:59:37;102472.94;;;13.17
66113;BMP280;52893;52.870;5.822;2023-04-16T11:02:06;102470.50;;;13.15
66113;BMP280;52893;52.870;5.822;2023-04-16T11:04:35;102480.53;;;13.20
66113;BMP280;52893;52.870;5.822;2023-04-16T11:07:05;102460.75;;;13.09
66113;BMP280;52893;52.870;5.822;2023-04-16T11:09:53;102484.91;;;13.21
66113;BMP280;52893;52.870;5.822;2023-04-16T11:12:25;102486.47;;;13.27
66113;BMP280;52893;52.870;5.822;2023-04-16T11:14:58;102476.91;;;13.24
66113;BMP280;52893;52.870;5.822;2023-04-16T11:17:27;102481.81;;;13.27
66113;BMP280;52893;52.870;5.822;2023-04-16T11:19:55;102482.63;;;13.28
66113;BMP280;52893;52.870;5.822;2023-04-16T11:22:23;102476.97;;;13.19
66113;BMP280;52893;52.870;5.822;2023-04-16T11:24:53;102486.84;;;13.20
66113;BMP280;52893;52.870;5.822;2023-04-16T11:27:21;102486.56;;;13.22
66113;BMP280;52893;52.870;5.822;2023-04-16T11:29:58;102496.72;;;13.21
66113;BMP280;52893;52.870;5.822;2023-04-16T11:32:25;102488.19;;;13.23
66113;BMP280;52893;52.870;5.822;2023-04-16T11:34:53;102493.06;;;13.26
66113;BMP280;52893;52.870;5.822;2023-04-16T11:37:21;102489.09;;;13.32
66113;BMP280;52893;52.870;5.822;2023-04-16T11:39:58;102489.09;;;13.32
66113;BMP280;52893;52.870;5.822;2023-04-16T11:42:25;102496.09;;;13.38
66113;BMP280;52893;52.870;5.822;2023-04-16T11:44:54;102483.31;;;13.33
66113;BMP280;52893;52.870;5.822;2023-04-16T11:47:23;102496.75;;;13.35
66113;BMP280;52893;52.870;5.822;2023-04-16T11:49:50;102499.34;;;13.40
66113;BMP280;52893;52.870;5.822;2023-04-16T11:52:25;102495.28;;;13.51
66113;BMP280;52893;52.870;5.822;2023-04-16T11:54:53;102494.78;;;13.63
66113;BMP280;52893;52.870;5.822;2023-04-16T11:57:25;102486.78;;;13.52
66113;BMP280;52893;52.870;5.822;2023-04-16T11:59:52;102495.94;;;13.62
66113;BMP280;52893;52.870;5.822;2023-04-16T12:02:35;102487.16;;;13.60
66113;BMP280;52893;52.870;5.822;2023-04-16T12:05:03;102504.75;;;13.72
66113;BMP280;52893;52.870;5.822;2023-04-16T12:07:31;102499.38;;;13.81
66113;BMP280;52893;52.870;5.822;2023-04-16T12:10:07;102498.31;;;13.90
66113;BMP280;52893;52.870;5.822;2023-04-16T12:12:34;102494.84;;;13.98
66113;BMP280;52893;52.870;5.822;2023-04-16T12:15:02;102497.91;;;13.97
66113;BMP280;52893;52.870;5.822;2023-04-16T12:17:32;102508.72;;;13.93
66113;BMP280;52893;52.870;5.822;2023-04-16T12:20:02;102500.78;;;13.92
66113;BMP280;52893;52.870;5.822;2023-04-16T12:22:32;102502.06;;;13.94
66113;BMP280;52893;52.870;5.822;2023-04-16T12:25:01;102503.81;;;13.90
66113;BMP280;52893;52.870;5.822;2023-04-16T12:27:47;102509.13;;;13.87
66113;BMP280;52893;52.870;5.822;2023-04-16T12:30:16;102489.38;;;13.85
66113;BMP280;52893;52.870;5.822;2023-04-16T12:32:47;102485.50;;;13.86
66113;BMP280;52893;52.870;5.822;2023-04-16T12:35:29;102496.56;;;14.08
66113;BMP280;52893;52.870;5.822;2023-04-16T12:37:57;102488.06;;;14.18
66113;BMP280;52893;52.870;5.822;2023-04-16T12:40:25;102499.28;;;14.22
66113;BMP280;52893;52.870;5.822;2023-04-16T12:42:52;102492.44;;;14.19
66113;BMP280;52893;52.870;5.822;2023-04-16T12:45:19;102502.84;;;14.22
66113;BMP280;52893;52.870;5.822;2023-04-16T12:47:47;102499.28;;;14.22
66113;BMP280;52893;52.870;5.822;2023-04-16T12:50:15;102501.47;;;14.33
66113;BMP280;52893;52.870;5.822;2023-04-16T12:52:44;102495.41;;;14.45
66113;BMP280;52893;52.870;5.822;2023-04-16T12:55:11;102506.41;;;14.67
66113;BMP280;52893;52.870;5.822;2023-04-16T12:57:39;102501.28;;;14.74
66113;BMP280;52893;52.870;5.822;2023-04-16T13:00:07;102501.88;;;14.93
66113;BMP280;52893;52.870;5.822;2023-04-16T13:02:35;102505.31;;;15.08
66113;BMP280;52893;52.870;5.822;2023-04-16T13:05:02;102502.44;;;15.13
66113;BMP280;52893;52.870;5.822;2023-04-16T13:07:30;102498.75;;;15.17
66113;BMP280;52893;52.870;5.822;2023-04-16T13:10:00;102502.84;;;15.28
66113;BMP280;52893;52.870;5.822;2023-04-16T13:12:27;102498.03;;;15.34
66113;BMP280;52893;52.870;5.822;2023-04-16T13:14:54;102499.16;;;15.41
66113;BMP280;52893;52.870;5.822;2023-04-16T13:17:21;102492.84;;;15.41
66113;BMP280;52893;52.870;5.822;2023-04-16T13:19:49;102499.22;;;15.50
66113;BMP280;52893;52.870;5.822;2023-04-16T13:22:16;102503.94;;;15.67
66113;BMP280;52893;52.870;5.822;2023-04-16T13:24:43;102503.13;;;15.75
66113;BMP280;52893;52.870;5.822;2023-04-16T13:27:12;102499.94;;;15.73
66113;BMP280;52893;52.870;5.822;2023-04-16T13:29:41;102507.66;;;15.62
66113;BMP280;52893;52.870;5.822;2023-04-16T13:32:08;102508.91;;;15.47
66113;BMP280;52893;52.870;5.822;2023-04-16T13:34:37;102508.84;;;15.30
66113;BMP280;52893;52.870;5.822;2023-04-16T13:37:05;102508.59;;;15.10
66113;BMP280;52893;52.870;5.822;2023-04-16T13:39:32;102507.69;;;14.92
66113;BMP280;52893;52.870;5.822;2023-04-16T13:41:59;102505.44;;;14.94
66113;BMP280;52893;52.870;5.822;2023-04-16T13:44:31;102503.28;;;14.82
66113;BMP280;52893;52.870;5.822;2023-04-16T13:46:58;102501.09;;;14.71
66113;BMP280;52893;52.870;5.822;2023-04-16T13:49:26;102502.28;;;14.56
66113;BMP280;52893;52.870;5.822;2023-04-16T13:51:53;102502.41;;;14.51
66113;BMP280;52893;52.870;5.822;2023-04-16T13:54:20;102502.03;;;14.44
66113;BMP280;52893;52.870;5.822;2023-04-16T13:56:48;102501.88;;;14.40
66113;BMP280;52893;52.870;5.822;2023-04-16T13:59:16;102501.03;;;14.40
66113;BMP280;52893;52.870;5.822;2023-04-16T14:01:44;102501.50;;;14.42
66113;BMP280;52893;52.870;5.822;2023-04-16T14:04:11;102500.78;;;14.50